logo
Rechercher aéroport 
image banner adimage banner adimage banner ad
image banner ad

6CL7 - Orange Co Sheriffs Forensics Lab Helistop

Situé à Santa Ana, United States

ICAO - 6CL7, IATA -

Données fournies par Airmate  

Information générale

Coordonnées: N33°44'52" W117°52'39"
Élévation : 223 feet MSL.
Variation magnétique : 14° East
Voir autres Aéroports à California

Données opérationnelles

Special qualification required
Heure actuelle UTC:
Heure actuelle locale:
METAR: KSNA 261653Z VRB03KT 10SM FEW140 26/16 A2992 RMK AO2 SLP130 T02610161
TAF: KSNA 261120Z 2612/2712 VRB03KT P6SM SKC FM261800 23009KT P6SM SKC FM270300 VRB04KT P6SM SKC
Voir NOTAMs / SUP AIP / TFR affectant cet aéroport [VIEW]
Fréquences de communication: [VIEW]

Pistes:

Coordonnées de l'aéroport

Adresse: Santa Ana United States

Vue satellite de 6CL7